Time;durP1;ratioP1;P1;durP2;ratioP2;P2;SDS_P1;SDS_P2;PMS_P1;PMS_P2;Temp;Humidity;BMP_temperature;BMP_pressure;BME280_temperature;BME280_humidity;BME280_pressure;Samples;Min_cycle;Max_cycle;Signal;HPM_P1;HPM_P2
2023/08/08 00:01:43;;;;;;;;;0.33;0.33;;;;;26.89;40.12;101746.03;5035322;28;45406;-72
2023/08/08 00:04:10;;;;;;;;;1.00;1.00;;;;;26.80;40.18;101737.34;5035161;28;45457;-72
2023/08/08 00:06:35;;;;;;;;;1.00;1.00;;;;;26.89;40.37;101742.53;5035110;28;46963;-72
2023/08/08 00:09:00;;;;;;;;;0.00;0.00;;;;;26.80;40.15;101725.84;5034608;27;45456;-72
2023/08/08 00:11:26;;;;;;;;;0.00;0.00;;;;;26.90;40.83;101742.34;5035031;28;45495;-72
2023/08/08 00:13:51;;;;;;;;;1.00;1.00;;;;;26.90;40.57;101752.19;5034961;28;45294;-72
2023/08/08 00:16:17;;;;;;;;;0.00;0.00;;;;;26.88;40.30;101738.22;5034993;28;46626;-72
2023/08/08 00:18:42;;;;;;;;;0.00;0.00;;;;;26.90;40.17;101739.69;5033556;28;45420;-72
2023/08/08 00:21:07;;;;;;;;;1.33;0.00;;;;;26.67;40.51;101699.84;5035176;28;45332;-72
2023/08/08 00:23:33;;;;;;;;;0.33;0.33;;;;;26.70;40.40;101702.94;5035011;28;45326;-72
2023/08/08 00:25:58;;;;;;;;;1.00;1.00;;;;;26.88;40.18;101722.19;5034775;28;47145;-72
2023/08/08 00:28:23;;;;;;;;;0.00;0.00;;;;;26.78;40.62;101711.84;5034552;28;45264;-72
2023/08/08 00:30:49;;;;;;;;;3.00;1.00;;;;;26.90;40.81;101721.00;5034884;28;45319;-72
2023/08/08 00:33:14;;;;;;;;;0.00;0.00;;;;;26.89;40.69;101724.66;5035093;28;45326;-72
2023/08/08 00:35:39;;;;;;;;;2.00;1.00;;;;;26.73;40.07;101696.38;5034721;27;46322;-72
2023/08/08 00:38:05;;;;;;;;;0.00;0.00;;;;;26.84;40.13;101717.25;5034790;28;45390;-72
2023/08/08 00:40:30;;;;;;;;;0.33;0.33;;;;;26.84;40.86;101711.91;5035023;28;45329;-72
2023/08/08 00:42:55;;;;;;;;;1.00;1.00;;;;;26.87;40.82;101712.53;5034565;28;45286;-72
2023/08/08 00:45:21;;;;;;;;;0.00;0.00;;;;;26.86;40.45;101717.03;5034155;28;62701;-73
2023/08/08 00:47:46;;;;;;;;;1.00;1.00;;;;;26.79;40.85;101705.47;5034525;28;45320;-72
2023/08/08 00:50:13;;;;;;;;;1.00;1.00;;;;;26.67;40.67;101678.50;5034707;28;45394;-72
2023/08/08 00:52:39;;;;;;;;;0.00;0.00;;;;;26.85;40.93;101713.53;5034625;28;45470;-72
2023/08/08 00:55:06;;;;;;;;;0.00;0.00;;;;;26.85;40.22;101710.88;5034361;28;45285;-71
2023/08/08 00:57:31;;;;;;;;;1.00;1.00;;;;;26.85;40.74;101708.19;5034024;28;45354;-72
2023/08/08 00:59:56;;;;;;;;;0.00;0.00;;;;;26.86;40.45;101706.34;5034534;28;45338;-72
2023/08/08 01:02:22;;;;;;;;;1.00;1.00;;;;;26.83;40.20;101704.91;5034567;28;45326;-72
2023/08/08 01:04:47;;;;;;;;;0.00;0.00;;;;;26.86;40.68;101717.03;5034397;28;46020;-72
2023/08/08 01:07:30;;;;;;;;;0.00;0.00;;;;;26.87;40.12;101708.03;5034199;28;45437;-72
2023/08/08 01:10:06;;;;;;;;;1.00;1.00;;;;;26.77;40.42;101689.66;5034313;27;45263;-72
2023/08/08 01:12:34;;;;;;;;;0.67;0.67;;;;;26.81;40.39;101706.94;5016249;27;45439;-72
2023/08/08 01:15:01;;;;;;;;;0.00;0.00;;;;;26.85;40.54;101700.19;5034204;28;47486;-72
2023/08/08 01:17:27;;;;;;;;;1.00;1.00;;;;;26.85;40.31;101694.84;5034218;28;45355;-72
2023/08/08 01:19:52;;;;;;;;;0.00;0.00;;;;;26.80;40.52;101686.63;5034079;27;45193;-72
2023/08/08 01:22:25;;;;;;;;;0.00;0.00;;;;;26.70;40.22;101678.91;5034499;27;45288;-72
2023/08/08 01:24:51;;;;;;;;;1.00;1.00;;;;;26.85;40.33;101699.38;5033729;28;45393;-72
2023/08/08 01:27:17;;;;;;;;;0.00;0.00;;;;;26.83;40.44;101696.88;5034143;28;45245;-72
2023/08/08 01:29:43;;;;;;;;;0.00;0.00;;;;;26.82;40.64;101689.91;5034410;28;45350;-72
2023/08/08 01:32:08;;;;;;;;;1.00;1.00;;;;;26.86;40.98;101703.69;5034097;28;45519;-72
2023/08/08 01:34:35;;;;;;;;;1.00;1.00;;;;;26.80;40.18;101694.63;5034041;28;46775;-72
2023/08/08 01:37:17;;;;;;;;;0.00;0.00;;;;;26.85;40.25;101702.84;5034002;28;45348;-72
2023/08/08 01:39:44;;;;;;;;;0.00;0.00;;;;;26.78;40.84;101690.50;5033822;28;45386;-72
2023/08/08 01:42:11;;;;;;;;;0.00;0.00;;;;;26.85;40.94;101696.72;5034014;28;45374;-72
2023/08/08 01:44:39;;;;;;;;;0.67;0.67;;;;;26.85;40.45;101692.19;5033819;28;47286;-72
2023/08/08 01:47:05;;;;;;;;;1.67;0.00;;;;;26.75;40.87;101683.69;5033849;28;45457;-72
2023/08/08 01:49:30;;;;;;;;;0.33;0.33;;;;;26.85;40.94;101696.72;5016105;27;45351;-72
2023/08/08 01:51:56;;;;;;;;;0.67;0.67;;;;;26.79;40.59;101681.44;5033961;28;45282;-72
2023/08/08 01:54:21;;;;;;;;;0.00;0.00;;;;;26.82;40.86;101689.91;5033487;28;46147;-72
2023/08/08 01:56:46;;;;;;;;;0.00;0.00;;;;;26.82;40.33;101684.56;5033830;28;45880;-72
2023/08/08 01:59:11;;;;;;;;;0.00;0.00;;;;;26.56;40.51;101634.47;5033997;28;45316;-72
2023/08/08 02:01:37;;;;;;;;;1.00;1.00;;;;;26.61;40.47;101650.72;5033847;27;45246;-72
2023/08/08 02:04:02;;;;;;;;;1.33;1.00;;;;;26.77;40.55;101670.97;5033736;28;46241;-72
2023/08/08 02:06:28;;;;;;;;;1.67;0.00;;;;;26.76;40.97;101668.50;5033640;28;45395;-72
2023/08/08 02:08:53;;;;;;;;;0.00;0.00;;;;;26.81;41.00;101680.25;5033266;27;45512;-72
2023/08/08 02:11:18;;;;;;;;;1.00;1.00;;;;;26.70;40.36;101670.09;5033830;28;45404;-72
2023/08/08 02:13:44;;;;;;;;;2.00;0.00;;;;;26.78;41.01;101682.50;5033470;28;46701;-71
2023/08/08 02:16:09;;;;;;;;;0.00;0.00;;;;;26.80;40.43;101683.94;5033663;28;45189;-72
2023/08/08 02:18:36;;;;;;;;;2.00;1.00;;;;;26.41;40.95;101622.78;5032769;27;45257;-72
2023/08/08 02:21:01;;;;;;;;;0.33;0.33;;;;;26.81;40.85;101671.41;5033630;28;45437;-72
2023/08/08 02:23:26;;;;;;;;;0.00;0.00;;;;;26.75;40.34;101670.34;5032359;28;46075;-72
2023/08/08 02:25:52;;;;;;;;;2.33;0.33;;;;;26.81;40.98;101679.41;5033521;28;45382;-72
2023/08/08 02:28:17;;;;;;;;;0.00;0.00;;;;;26.77;40.39;101670.16;5033564;28;45391;-72
2023/08/08 02:30:42;;;;;;;;;0.00;0.00;;;;;26.76;41.03;101666.66;5033558;28;45369;-72
2023/08/08 02:33:08;;;;;;;;;0.00;0.00;;;;;26.72;40.31;101660.88;5033274;28;46114;-72
2023/08/08 02:35:33;;;;;;;;;0.00;0.00;;;;;26.82;40.78;101678.41;5033329;28;45530;-72
2023/08/08 02:37:58;;;;;;;;;1.00;0.00;;;;;26.69;40.52;101653.25;5033142;28;45690;-72
2023/08/08 02:40:24;;;;;;;;;0.00;0.00;;;;;26.75;40.30;101662.34;5032014;28;45547;-72
2023/08/08 02:42:50;;;;;;;;;1.33;1.33;;;;;26.75;40.56;101659.69;5033119;28;46453;-72
2023/08/08 02:45:15;;;;;;;;;0.67;0.67;;;;;26.80;40.81;101661.75;5033301;28;45403;-72
2023/08/08 02:47:40;;;;;;;;;1.00;1.00;;;;;26.77;40.95;101662.13;5033103;28;45355;-72
2023/08/08 02:50:06;;;;;;;;;1.00;1.00;;;;;26.33;40.76;101593.59;5033197;28;45529;-72
2023/08/08 02:52:31;;;;;;;;;0.00;0.00;;;;;26.80;40.49;101664.44;5032749;28;45933;-72
2023/08/08 02:54:56;;;;;;;;;3.00;1.00;;;;;26.80;40.23;101675.94;5033045;28;45428;-72
2023/08/08 02:57:22;;;;;;;;;0.33;0.00;;;;;26.56;40.87;101635.28;5033402;28;45221;-72
2023/08/08 02:59:47;;;;;;;;;1.00;1.00;;;;;26.74;40.81;101677.53;5032986;28;45431;-72
2023/08/08 03:02:12;;;;;;;;;0.33;0.33;;;;;26.81;40.45;101676.75;5032979;28;47246;-72
2023/08/08 03:04:38;;;;;;;;;0.00;0.00;;;;;26.79;40.61;101666.28;5033467;27;45374;-71
2023/08/08 03:07:04;;;;;;;;;1.00;1.00;;;;;26.71;40.61;101656.56;5031340;28;45472;-72
2023/08/08 03:09:30;;;;;;;;;2.00;0.00;;;;;26.80;40.51;101664.44;5032836;28;45611;-72
2023/08/08 03:11:55;;;;;;;;;0.00;0.00;;;;;26.76;40.60;101652.47;5032749;28;46162;-72
2023/08/08 03:14:20;;;;;;;;;0.00;0.00;;;;;26.80;40.92;101654.59;5032805;28;45181;-72
2023/08/08 03:16:45;;;;;;;;;0.00;0.00;;;;;26.73;40.97;101649.16;5032977;28;45343;-72
2023/08/08 03:19:11;;;;;;;;;0.00;0.00;;;;;26.72;40.84;101644.88;5032769;28;45228;-72
2023/08/08 03:21:36;;;;;;;;;0.00;0.00;;;;;26.58;40.33;101622.56;5032257;28;45446;-71
2023/08/08 03:24:02;;;;;;;;;0.00;0.00;;;;;26.65;40.98;101632.50;5032632;28;45355;-72
2023/08/08 03:26:27;;;;;;;;;0.00;0.00;;;;;26.78;40.84;101655.78;5014714;28;45459;-72
2023/08/08 03:28:53;;;;;;;;;0.00;0.00;;;;;26.79;40.85;101658.25;5032617;28;45545;-72
2023/08/08 03:31:19;;;;;;;;;1.00;1.00;;;;;26.79;40.97;101660.94;5016120;28;45501;-72
2023/08/08 03:33:45;;;;;;;;;0.00;0.00;;;;;26.70;40.44;101644.22;5035507;28;45332;-72
2023/08/08 03:36:10;;;;;;;;;0.00;0.00;;;;;26.60;40.42;101628.53;5035349;27;45256;-72
2023/08/08 03:38:37;;;;;;;;;1.00;1.00;;;;;26.63;40.88;101638.84;5017770;28;45665;-71
2023/08/08 03:41:03;;;;;;;;;1.00;1.00;;;;;26.68;41.09;101648.09;5035396;28;46577;-71
2023/08/08 03:43:28;;;;;;;;;0.00;0.00;;;;;26.79;40.30;101663.59;5035401;28;45179;-72
2023/08/08 03:45:54;;;;;;;;;0.00;0.00;;;;;26.79;40.80;101666.28;5035454;28;45306;-71
2023/08/08 03:48:19;;;;;;;;;1.00;1.00;;;;;26.73;40.63;101657.19;5035566;28;45312;-72
2023/08/08 03:50:46;;;;;;;;;1.00;1.00;;;;;26.70;40.51;101654.09;5034820;28;46974;-72
2023/08/08 03:53:12;;;;;;;;;1.00;1.00;;;;;26.66;40.82;101642.13;5035387;27;45457;-71
2023/08/08 03:55:37;;;;;;;;;0.00;0.00;;;;;26.80;40.27;101667.09;5035453;28;45409;-72
2023/08/08 03:58:03;;;;;;;;;1.00;1.00;;;;;26.80;40.31;101672.44;5035401;28;45378;-71
2023/08/08 04:00:28;;;;;;;;;0.00;0.00;;;;;26.80;40.22;101664.44;5035097;28;47236;-72
2023/08/08 04:02:53;;;;;;;;;1.00;0.00;;;;;26.80;40.31;101670.59;5035192;28;45383;-72
2023/08/08 04:05:19;;;;;;;;;0.33;0.33;;;;;26.66;40.15;101652.81;5035072;28;45461;-72
2023/08/08 04:07:44;;;;;;;;;1.00;1.00;;;;;26.77;40.87;101654.97;5035144;28;45522;-72
2023/08/08 04:10:10;;;;;;;;;0.00;0.00;;;;;26.75;40.34;101659.69;5034789;28;47092;-72
2023/08/08 04:12:35;;;;;;;;;0.00;0.00;;;;;26.77;40.29;101659.47;5035152;28;45476;-72
2023/08/08 04:15:01;;;;;;;;;1.00;1.00;;;;;26.74;40.49;101656.19;5035215;28;45702;-72
2023/08/08 04:17:26;;;;;;;;;0.00;0.00;;;;;26.76;40.97;101666.66;5035030;28;45355;-72
2023/08/08 04:19:52;;;;;;;;;1.00;1.00;;;;;26.71;40.37;101650.38;5034326;28;47544;-72
2023/08/08 04:22:17;;;;;;;;;0.00;0.00;;;;;26.78;40.40;101661.94;5035038;28;45236;-72
2023/08/08 04:24:43;;;;;;;;;0.00;0.00;;;;;26.80;40.87;101656.41;5035005;28;45305;-72
2023/08/08 04:27:08;;;;;;;;;0.00;0.00;;;;;26.79;40.46;101663.59;5035106;28;45392;-72
2023/08/08 04:29:34;;;;;;;;;0.00;0.00;;;;;26.55;40.30;101630.97;5034835;28;45521;-72
2023/08/08 04:31:59;;;;;;;;;2.00;1.00;;;;;26.74;40.27;101668.69;5035110;28;45331;-72
2023/08/08 04:34:25;;;;;;;;;0.33;0.33;;;;;26.73;40.47;101667.03;5034678;28;45376;-71
2023/08/08 04:36:50;;;;;;;;;0.33;0.00;;;;;26.79;40.47;101676.94;5034792;28;45356;-72
2023/08/08 04:39:15;;;;;;;;;0.00;0.00;;;;;26.74;40.76;101671.38;5034771;28;45326;-72
2023/08/08 04:41:41;;;;;;;;;1.00;1.00;;;;;26.69;40.33;101666.59;5034253;28;45271;-71
2023/08/08 04:44:06;;;;;;;;;0.00;0.00;;;;;26.80;40.43;101681.28;5034987;28;45626;-71
2023/08/08 04:46:31;;;;;;;;;0.33;0.33;;;;;26.80;40.36;101677.78;5034708;28;45561;-72
2023/08/08 04:48:57;;;;;;;;;0.00;0.00;;;;;26.81;40.57;101685.59;5034075;28;46030;-72
2023/08/08 04:51:22;;;;;;;;;1.00;1.00;;;;;26.81;40.46;101682.09;5034533;28;45366;-71
2023/08/08 04:53:47;;;;;;;;;0.33;0.00;;;;;26.57;40.88;101644.94;5034752;28;45352;-71
2023/08/08 04:56:13;;;;;;;;;2.00;0.33;;;;;26.67;40.86;101657.97;5034316;28;45413;-72
2023/08/08 04:58:38;;;;;;;;;1.00;1.00;;;;;26.50;40.54;101625.38;5034620;28;45461;-71
2023/08/08 05:01:04;;;;;;;;;0.00;0.00;;;;;26.69;40.42;101655.94;5034388;28;45364;-71
2023/08/08 05:03:29;;;;;;;;;2.00;1.00;;;;;26.68;40.94;101656.09;5034212;28;45288;-72
2023/08/08 05:05:54;;;;;;;;;1.00;1.00;;;;;26.79;40.24;101673.44;5034375;28;45473;-72
2023/08/08 05:08:20;;;;;;;;;1.67;0.00;;;;;26.73;40.37;101667.84;5034148;27;45370;-72
2023/08/08 05:10:45;;;;;;;;;2.00;0.33;;;;;26.79;40.37;101673.44;5034426;28;45289;-71
2023/08/08 05:13:10;;;;;;;;;1.00;1.00;;;;;26.81;40.36;101672.22;5034443;28;45391;-72
2023/08/08 05:15:36;;;;;;;;;0.00;0.00;;;;;26.78;40.59;101666.47;5033216;27;45499;-72
2023/08/08 05:18:01;;;;;;;;;0.00;0.00;;;;;26.84;40.65;101671.03;5033895;27;46332;-71
2023/08/08 05:20:27;;;;;;;;;0.00;0.00;;;;;26.85;40.75;101673.47;5034303;28;45300;-71
2023/08/08 05:22:52;;;;;;;;;1.00;1.00;;;;;26.79;40.40;101655.59;5034303;28;45279;-71
2023/08/08 05:25:18;;;;;;;;;0.00;0.00;;;;;26.83;40.35;101661.34;5034254;28;45316;-72
2023/08/08 05:27:43;;;;;;;;;0.00;0.00;;;;;26.80;40.85;101656.41;5034128;28;45984;-71
2023/08/08 05:30:09;;;;;;;;;0.00;0.00;;;;;26.95;40.55;101675.84;5034076;28;45236;-71
2023/08/08 05:32:34;;;;;;;;;1.00;1.00;;;;;26.79;40.61;101650.25;5034002;28;45192;-72
2023/08/08 05:35:00;;;;;;;;;1.00;1.00;;;;;26.82;39.90;101647.19;5034092;28;45231;-71
2023/08/08 05:37:26;;;;;;;;;0.00;0.00;;;;;27.03;40.34;101666.88;5033870;28;46446;-71
2023/08/08 05:39:52;;;;;;;;;0.00;0.00;;;;;27.10;40.05;101661.56;5033968;28;45367;-72
2023/08/08 05:42:17;;;;;;;;;0.67;0.33;;;;;27.20;40.35;101666.56;5034235;27;45409;-72
2023/08/08 05:44:43;;;;;;;;;0.67;0.67;;;;;27.22;40.22;101651.16;5034012;28;45449;-72
2023/08/08 05:47:08;;;;;;;;;0.00;0.00;;;;;27.40;39.62;101676.56;5033490;28;45447;-72
2023/08/08 05:49:33;;;;;;;;;0.00;0.00;;;;;27.39;39.41;101659.72;5016060;27;45632;-71
2023/08/08 05:51:59;;;;;;;;;0.00;0.00;;;;;27.56;39.20;101671.94;5034042;28;45369;-72
2023/08/08 05:54:24;;;;;;;;;0.00;0.00;;;;;27.57;39.30;101647.66;5101933;27;45693;-71
2023/08/08 05:56:50;;;;;;;;;1.67;0.67;;;;;27.73;39.18;101659.03;5033677;27;46210;-72
2023/08/08 05:59:15;;;;;;;;;1.00;1.00;;;;;27.93;38.67;101677.84;5033911;28;45415;-72
2023/08/08 06:01:41;;;;;;;;;0.67;0.67;;;;;28.02;38.92;101675.84;5033387;28;45435;-71
2023/08/08 06:04:06;;;;;;;;;1.00;1.00;;;;;27.84;38.67;101630.94;5033799;27;45421;-72
2023/08/08 06:06:31;;;;;;;;;0.67;0.00;;;;;28.28;39.10;101670.75;5033609;28;46018;-72
2023/08/08 06:08:57;;;;;;;;;0.33;0.00;;;;;28.22;38.64;101644.78;5033517;27;45523;-72
2023/08/08 06:11:22;;;;;;;;;0.00;0.00;;;;;28.52;38.72;101684.59;5033833;28;45653;-71
2023/08/08 06:13:48;;;;;;;;;0.00;0.00;;;;;28.58;38.16;101672.22;5033635;28;45409;-72
2023/08/08 06:16:14;;;;;;;;;0.00;0.00;;;;;28.73;37.79;101680.06;5033107;28;46273;-71
2023/08/08 06:18:40;;;;;;;;;0.33;0.33;;;;;28.80;38.31;101683.59;5033142;28;45448;-71
2023/08/08 06:21:05;;;;;;;;;0.00;0.00;;;;;28.88;37.67;101685.22;5033535;28;45341;-72
2023/08/08 06:23:31;;;;;;;;;1.00;1.00;;;;;28.95;37.70;101669.13;5033714;28;45283;-72
2023/08/08 06:25:56;;;;;;;;;0.00;0.00;;;;;29.07;37.51;101672.81;5033176;28;46600;-72
2023/08/08 06:28:22;;;;;;;;;0.00;0.00;;;;;29.09;37.02;101674.47;5033605;28;45434;-72
2023/08/08 06:30:47;;;;;;;;;0.33;0.33;;;;;29.11;37.45;101675.94;5033209;28;45592;-72
2023/08/08 06:33:12;;;;;;;;;0.33;0.33;;;;;29.09;37.07;101680.69;5033526;28;45371;-71
2023/08/08 06:35:39;;;;;;;;;3.00;0.33;;;;;29.09;37.35;101674.47;5033360;28;45239;-72
2023/08/08 06:38:04;;;;;;;;;0.67;0.33;;;;;29.16;37.24;101672.63;5033186;28;45420;-72
2023/08/08 06:40:29;;;;;;;;;1.00;1.00;;;;;29.22;37.07;101674.50;5033247;28;45373;-72
2023/08/08 06:42:55;;;;;;;;;1.33;0.00;;;;;29.22;37.28;101649.56;5033325;28;45373;-72
2023/08/08 06:45:21;;;;;;;;;0.00;0.00;;;;;29.45;36.89;101675.88;5032728;28;46792;-72
2023/08/08 06:47:46;;;;;;;;;0.00;0.00;;;;;29.58;36.70;101664.28;5015379;28;45626;-71
2023/08/08 06:50:11;;;;;;;;;0.00;0.00;;;;;29.79;36.45;101675.78;5033211;28;45449;-71
2023/08/08 06:52:37;;;;;;;;;0.00;0.00;;;;;29.82;36.44;101674.53;5033106;28;45309;-71
2023/08/08 06:55:02;;;;;;;;;1.00;0.00;;;;;29.86;36.17;101662.31;5032962;28;46438;-71
2023/08/08 06:57:32;;;;;;;;;0.00;0.00;;;;;29.79;36.47;101650.81;5032834;28;45293;-71
2023/08/08 06:59:57;;;;;;;;;1.00;1.00;;;;;29.81;36.17;101660.28;5032883;28;45461;-71
2023/08/08 07:02:23;;;;;;;;;0.33;0.00;;;;;29.70;36.18;101652.88;5032956;28;45419;-71
2023/08/08 07:04:48;;;;;;;;;0.33;0.33;;;;;29.64;36.34;101662.59;5032536;28;45915;-72
2023/08/08 07:07:13;;;;;;;;;1.00;0.00;;;;;29.50;36.39;101662.66;5015070;28;45374;-71
2023/08/08 07:09:39;;;;;;;;;0.00;0.00;;;;;29.45;36.29;101672.34;5014880;28;45682;-71
2023/08/08 07:12:05;;;;;;;;;0.00;0.00;;;;;28.95;36.60;101602.19;5032951;28;45369;-71
2023/08/08 07:14:30;;;;;;;;;0.00;0.00;;;;;29.18;36.87;101662.53;5032253;28;45590;-71
2023/08/08 07:16:55;;;;;;;;;0.67;0.67;;;;;29.16;37.05;101664.59;5032656;28;45715;-71
2023/08/08 07:19:21;;;;;;;;;0.00;0.00;;;;;29.03;37.07;101647.50;5032714;28;45788;-71
2023/08/08 07:21:46;;;;;;;;;0.00;0.00;;;;;28.92;37.15;101629.38;5032808;28;45377;-71
2023/08/08 07:24:12;;;;;;;;;0.00;0.00;;;;;29.01;37.25;101646.06;5032608;28;47232;-71
2023/08/08 07:26:37;;;;;;;;;0.00;0.00;;;;;28.71;37.23;101616.00;5032660;28;45409;-71
2023/08/08 07:29:05;;;;;;;;;0.33;0.33;;;;;28.85;37.16;101643.63;5032330;28;45394;-71
2023/08/08 07:31:30;;;;;;;;;1.00;1.00;;;;;28.58;37.18;101603.47;5032619;28;45449;-71
2023/08/08 07:33:56;;;;;;;;;0.00;0.00;;;;;28.85;37.57;101665.03;5031352;27;51556;-71
2023/08/08 07:36:21;;;;;;;;;1.00;1.00;;;;;28.77;37.51;101654.53;5032374;28;45372;-71
2023/08/08 07:38:46;;;;;;;;;0.33;0.33;;;;;28.79;37.54;101660.50;5032699;28;45417;-71
2023/08/08 07:41:12;;;;;;;;;0.00;0.00;;;;;28.70;37.50;101643.81;5032519;28;45266;-71
2023/08/08 07:43:37;;;;;;;;;0.00;0.00;;;;;28.75;37.54;101659.28;5031949;28;46340;-71
2023/08/08 07:46:02;;;;;;;;;0.67;0.67;;;;;28.66;37.43;101645.25;5032314;28;47448;-71
2023/08/08 07:48:27;;;;;;;;;2.00;0.00;;;;;28.68;37.64;101655.75;5032524;28;45396;-71
2023/08/08 07:50:53;;;;;;;;;0.00;0.00;;;;;28.68;37.90;101656.59;5032254;28;45571;-71
2023/08/08 07:53:18;;;;;;;;;1.00;0.67;;;;;28.65;37.78;101642.81;5032001;28;48220;-71
2023/08/08 07:55:43;;;;;;;;;0.00;0.00;;;;;28.65;37.71;101654.31;5032116;28;45356;-71
2023/08/08 07:58:09;;;;;;;;;0.00;0.00;;;;;28.61;37.81;101651.25;5031977;28;45449;-71
2023/08/08 08:00:34;;;;;;;;;1.33;1.00;;;;;28.35;37.73;101599.31;5014387;27;45457;-71
2023/08/08 08:02:59;;;;;;;;;1.00;1.00;;;;;28.58;37.88;101640.94;5031798;28;47449;-71
2023/08/08 08:05:25;;;;;;;;;1.67;1.67;;;;;28.59;38.15;101647.94;5032052;28;45452;-72
2023/08/08 08:07:50;;;;;;;;;1.00;1.00;;;;;28.58;38.11;101645.47;5032154;28;45479;-71
2023/08/08 08:10:15;;;;;;;;;1.00;1.00;;;;;28.52;37.77;101641.78;5031549;28;45548;-71
2023/08/08 08:12:42;;;;;;;;;3.00;0.67;;;;;28.51;37.95;101650.81;5031602;28;46233;-71
2023/08/08 08:15:08;;;;;;;;;0.33;0.00;;;;;28.45;38.34;101648.97;5031748;28;45334;-71
2023/08/08 08:17:34;;;;;;;;;0.00;0.00;;;;;28.45;37.78;101648.97;5033760;28;45285;-71
2023/08/08 08:20:00;;;;;;;;;1.00;1.00;;;;;28.41;38.00;101643.19;5035075;28;45271;-71
2023/08/08 08:22:25;;;;;;;;;0.33;0.33;;;;;28.35;38.26;101636.78;5034662;28;45760;-71
2023/08/08 08:24:50;;;;;;;;;0.00;0.00;;;;;28.45;38.15;101654.31;5034903;28;45302;-71
2023/08/08 08:27:17;;;;;;;;;0.00;0.00;;;;;28.37;38.17;101641.91;5034544;28;45214;-71
2023/08/08 08:29:43;;;;;;;;;0.00;0.00;;;;;28.35;38.10;101642.13;5034936;28;46104;-71
2023/08/08 08:32:08;;;;;;;;;0.00;0.00;;;;;28.37;38.39;101655.31;5034582;28;46994;-71
2023/08/08 08:34:34;;;;;;;;;0.33;0.33;;;;;28.39;38.30;101662.09;5034786;28;45598;-71
2023/08/08 08:36:59;;;;;;;;;0.67;0.67;;;;;28.44;38.04;101666.03;5034873;28;45320;-71
2023/08/08 08:39:24;;;;;;;;;0.00;0.00;;;;;28.27;38.23;101642.34;5034716;28;45527;-71
2023/08/08 08:41:57;;;;;;;;;0.00;0.00;;;;;28.34;38.26;101642.34;5034252;28;45399;-72
2023/08/08 08:44:23;;;;;;;;;0.67;0.67;;;;;28.39;38.03;101659.44;5034761;28;45584;-71
2023/08/08 08:46:51;;;;;;;;;0.00;0.00;;;;;28.35;38.06;101660.88;5034656;27;45321;-71
2023/08/08 08:49:18;;;;;;;;;2.00;0.00;;;;;28.32;38.38;101650.56;5034405;28;45350;-71
2023/08/08 08:51:44;;;;;;;;;1.67;1.00;;;;;28.27;38.31;101635.13;5034371;28;45622;-71
2023/08/08 08:54:10;;;;;;;;;2.33;0.00;;;;;28.40;38.04;101658.41;5034394;28;45242;-71
2023/08/08 08:56:36;;;;;;;;;0.33;0.33;;;;;28.15;38.50;101615.38;5034389;28;45181;-71
2023/08/08 08:59:01;;;;;;;;;0.00;0.00;;;;;28.42;38.18;101658.19;5034436;28;45415;-71
2023/08/08 09:01:28;;;;;;;;;0.00;0.00;;;;;28.34;38.08;101645.03;5034219;28;46243;-72
2023/08/08 09:03:53;;;;;;;;;0.00;0.00;;;;;28.38;38.62;101657.78;5034505;28;45407;-71
2023/08/08 09:06:20;;;;;;;;;2.00;2.00;;;;;28.40;38.59;101661.09;5034365;28;45785;-72
2023/08/08 09:08:47;;;;;;;;;2.00;1.00;;;;;28.38;38.45;101657.78;5034029;27;45468;-71
2023/08/08 09:11:12;;;;;;;;;0.00;0.00;;;;;28.06;38.17;101612.88;5034074;28;46130;-71
2023/08/08 09:13:39;;;;;;;;;1.00;0.67;;;;;28.36;38.53;101659.03;5034305;28;45395;-71
2023/08/08 09:16:08;;;;;;;;;2.00;0.00;;;;;28.31;38.51;101659.66;5034496;28;45241;-71
2023/08/08 09:18:38;;;;;;;;;1.00;1.00;;;;;28.33;38.10;101667.44;5034036;27;45539;-71
2023/08/08 09:21:03;;;;;;;;;0.00;0.00;;;;;27.99;38.71;101617.41;5034103;28;46566;-71
2023/08/08 09:23:28;;;;;;;;;0.67;0.67;;;;;28.23;38.56;101649.13;5033710;28;45401;-72
2023/08/08 09:25:54;;;;;;;;;1.00;1.00;;;;;28.16;38.21;101643.75;5034423;28;45339;-72
2023/08/08 09:28:19;;;;;;;;;0.00;0.00;;;;;28.23;38.08;101651.81;5034165;28;45305;-72
2023/08/08 09:30:45;;;;;;;;;1.00;1.00;;;;;28.21;38.75;101656.53;5034186;27;46071;-72
2023/08/08 09:33:12;;;;;;;;;0.67;0.67;;;;;28.24;38.28;101661.47;5034101;28;45294;-73
2023/08/08 09:35:40;;;;;;;;;0.00;0.00;;;;;28.10;38.50;101633.88;5034371;28;45421;-73
2023/08/08 09:38:06;;;;;;;;;0.00;0.00;;;;;28.22;38.33;101647.47;5033777;28;45446;-72
2023/08/08 09:40:31;;;;;;;;;0.33;0.33;;;;;27.85;38.48;101589.78;5033809;28;47138;-72
2023/08/08 09:42:58;;;;;;;;;0.67;0.67;;;;;28.18;38.41;101639.84;5033910;28;45466;-72
2023/08/08 09:45:24;;;;;;;;;0.00;0.00;;;;;28.18;38.57;101645.19;5034085;28;45298;-72
2023/08/08 09:47:52;;;;;;;;;2.00;2.00;;;;;28.01;38.45;101622.53;5033966;28;45382;-72
2023/08/08 09:50:19;;;;;;;;;0.33;0.33;;;;;28.07;38.67;101638.59;5033720;28;46311;-72
2023/08/08 09:52:46;;;;;;;;;1.00;1.00;;;;;28.13;38.66;101642.31;5033290;28;45394;-72
2023/08/08 09:55:12;;;;;;;;;0.33;0.33;;;;;28.16;39.04;101649.94;5032805;27;45379;-72
2023/08/08 09:57:41;;;;;;;;;2.33;1.00;;;;;28.16;38.56;101644.56;5033888;28;45310;-72
2023/08/08 10:00:15;;;;;;;;;1.00;1.00;;;;;28.03;38.79;101631.16;5033679;28;47150;-72
2023/08/08 10:02:44;;;;;;;;;0.00;0.00;;;;;27.67;38.73;101583.13;5033600;28;45424;-72
2023/08/08 10:05:12;;;;;;;;;2.00;0.00;;;;;28.09;38.82;101646.41;5033799;28;45515;-72
2023/08/08 10:07:38;;;;;;;;;0.00;0.00;;;;;28.03;38.84;101636.50;5033263;28;45547;-72
2023/08/08 10:10:04;;;;;;;;;1.00;1.00;;;;;28.11;38.87;101655.06;5033091;28;46274;-72
2023/08/08 10:12:31;;;;;;;;;1.00;1.00;;;;;27.95;38.41;101630.34;5033488;28;45249;-72
2023/08/08 10:14:56;;;;;;;;;0.00;0.00;;;;;27.65;38.71;101584.38;5033591;28;45530;-72
2023/08/08 10:17:21;;;;;;;;;1.00;1.00;;;;;28.03;38.64;101650.72;5030260;28;45273;-72
2023/08/08 10:19:57;;;;;;;;;1.33;1.33;;;;;28.02;39.02;101642.91;5026825;28;47247;-72
2023/08/08 10:22:24;;;;;;;;;2.00;0.67;;;;;28.04;38.58;101651.56;5033232;27;45433;-72
2023/08/08 10:24:54;;;;;;;;;1.00;1.00;;;;;27.93;39.17;101627.03;5033439;28;45396;-72
2023/08/08 10:27:31;;;;;;;;;1.00;0.00;;;;;28.03;39.27;101645.38;5033263;28;45517;-72
2023/08/08 10:30:02;;;;;;;;;0.33;0.33;;;;;28.02;38.65;101649.09;5015313;28;47136;-72
2023/08/08 10:32:27;;;;;;;;;1.00;1.00;;;;;27.98;39.10;101636.31;5033211;28;45331;-73
2023/08/08 10:34:55;;;;;;;;;1.00;1.00;;;;;28.01;38.78;101631.38;5033343;28;45346;-71
2023/08/08 10:37:21;;;;;;;;;0.33;0.33;;;;;27.98;39.32;101615.72;5032998;28;45441;-72
2023/08/08 10:40:00;;;;;;;;;0.67;0.67;;;;;27.82;39.18;101592.84;5032226;28;45516;-72
2023/08/08 10:42:28;;;;;;;;;1.00;1.00;;;;;27.98;38.69;101615.72;5033201;28;45342;-72
2023/08/08 10:44:58;;;;;;;;;0.00;0.00;;;;;27.87;39.31;101602.97;5033211;28;45293;-72
2023/08/08 10:47:37;;;;;;;;;1.00;1.00;;;;;27.96;39.46;101607.09;5032948;28;45683;-72
2023/08/08 10:50:06;;;;;;;;;0.67;0.67;;;;;27.94;38.67;101601.97;5032848;28;47336;-72
2023/08/08 10:52:35;;;;;;;;;1.67;1.67;;;;;27.93;38.96;101600.31;5032465;28;45500;-72
2023/08/08 10:55:01;;;;;;;;;2.00;1.00;;;;;27.50;39.00;101545.25;5033014;28;45466;-72
2023/08/08 10:57:27;;;;;;;;;3.00;2.00;;;;;27.89;38.97;101609.78;5032896;28;45346;-72
2023/08/08 10:59:54;;;;;;;;;0.00;0.00;;;;;27.77;39.15;101593.44;5032802;28;45944;-72
2023/08/08 11:02:20;;;;;;;;;1.00;1.00;;;;;27.68;39.19;101576.78;5032977;27;45489;-72
2023/08/08 11:04:46;;;;;;;;;2.00;2.00;;;;;27.89;38.88;101617.78;5032682;28;45376;-72
2023/08/08 11:07:13;;;;;;;;;1.00;1.00;;;;;27.91;39.24;101614.91;5032858;28;45529;-72
2023/08/08 11:09:39;;;;;;;;;1.00;1.00;;;;;27.60;38.92;101568.94;5032341;28;46127;-71
2023/08/08 11:12:04;;;;;;;;;1.67;1.00;;;;;27.14;39.02;101491.91;5032571;28;45362;-72
2023/08/08 11:14:30;;;;;;;;;1.00;1.00;;;;;27.81;39.10;101588.56;5032984;27;45583;-71
2023/08/08 11:16:55;;;;;;;;;1.00;1.00;;;;;27.85;39.57;101595.13;5032706;28;45416;-72
2023/08/08 11:19:22;;;;;;;;;1.00;1.00;;;;;27.82;39.53;101595.53;5031923;28;46900;-72